sensor_id;sensor_type;location;lat;lon;timestamp;pressure;altitude;pressure_sealevel;temperature;humidity
56632;BME280;42503;39.928;-75.152;2022-12-29T00:04:44;102576.03;;;20.97;28.74
56632;BME280;42503;39.928;-75.152;2022-12-29T00:14:45;102594.09;;;20.94;28.84
56632;BME280;42503;39.928;-75.152;2022-12-29T00:25:07;102579.19;;;20.89;28.38
56632;BME280;42503;39.928;-75.152;2022-12-29T00:35:35;102581.38;;;20.87;28.58
56632;BME280;42503;39.928;-75.152;2022-12-29T00:45:41;102579.19;;;20.89;29.39
56632;BME280;42503;39.928;-75.152;2022-12-29T00:55:42;102588.03;;;20.86;29.24
56632;BME280;42503;39.928;-75.152;2022-12-29T01:05:43;102585.25;;;20.86;30.02
56632;BME280;42503;39.928;-75.152;2022-12-29T01:15:52;102588.16;;;20.91;29.90
56632;BME280;42503;39.928;-75.152;2022-12-29T01:25:54;102591.06;;;20.96;29.76
56632;BME280;42503;39.928;-75.152;2022-12-29T01:36:03;102583.81;;;20.95;29.05
56632;BME280;42503;39.928;-75.152;2022-12-29T01:46:30;102566.97;;;20.90;29.46
56632;BME280;42503;39.928;-75.152;2022-12-29T01:56:29;102577.63;;;21.04;29.55
56632;BME280;42503;39.928;-75.152;2022-12-29T02:06:38;102550.53;;;21.00;29.62
56632;BME280;42503;39.928;-75.152;2022-12-29T02:17:16;102569.50;;;21.15;29.76
56632;BME280;42503;39.928;-75.152;2022-12-29T02:38:13;102565.50;;;21.22;29.83
56632;BME280;42503;39.928;-75.152;2022-12-29T02:48:38;102576.44;;;21.36;29.83
56632;BME280;42503;39.928;-75.152;2022-12-29T02:58:43;102554.50;;;21.27;29.35
56632;BME280;42503;39.928;-75.152;2022-12-29T03:08:55;102566.59;;;21.45;29.51
56632;BME280;42503;39.928;-75.152;2022-12-29T03:29:12;102564.28;;;21.53;29.44
56632;BME280;42503;39.928;-75.152;2022-12-29T03:39:16;102559.88;;;21.57;29.03
56632;BME280;42503;39.928;-75.152;2022-12-29T03:49:19;102554.94;;;21.48;29.16
56632;BME280;42503;39.928;-75.152;2022-12-29T03:59:21;102557.34;;;21.56;29.03
56632;BME280;42503;39.928;-75.152;2022-12-29T04:09:22;102576.47;;;21.64;28.85
56632;BME280;42503;39.928;-75.152;2022-12-29T04:19:23;102568.22;;;21.69;28.71
56632;BME280;42503;39.928;-75.152;2022-12-29T04:29:25;102564.84;;;21.67;28.64
56632;BME280;42503;39.928;-75.152;2022-12-29T04:39:26;102557.91;;;21.70;29.06
56632;BME280;42503;39.928;-75.152;2022-12-29T04:49:27;102547.13;;;21.73;28.72
56632;BME280;42503;39.928;-75.152;2022-12-29T04:59:29;102543.41;;;21.68;28.75
56632;BME280;42503;39.928;-75.152;2022-12-29T05:09:32;102550.50;;;21.75;29.33
56632;BME280;42503;39.928;-75.152;2022-12-29T05:19:34;102534.03;;;21.74;29.62
56632;BME280;42503;39.928;-75.152;2022-12-29T05:29:35;102554.84;;;21.83;29.75
56632;BME280;42503;39.928;-75.152;2022-12-29T05:39:36;102539.59;;;21.86;29.66
56632;BME280;42503;39.928;-75.152;2022-12-29T05:49:38;102546.69;;;21.93;29.81
56632;BME280;42503;39.928;-75.152;2022-12-29T05:59:39;102547.53;;;21.94;29.74
56632;BME280;42503;39.928;-75.152;2022-12-29T06:09:40;102546.03;;;22.03;29.46
56632;BME280;42503;39.928;-75.152;2022-12-29T06:19:42;102547.84;;;22.09;29.79
56632;BME280;42503;39.928;-75.152;2022-12-29T06:29:47;102544.19;;;22.08;29.51
56632;BME280;42503;39.928;-75.152;2022-12-29T06:39:50;102554.19;;;22.21;29.25
56632;BME280;42503;39.928;-75.152;2022-12-29T06:49:54;102563.53;;;22.27;29.08
56632;BME280;42503;39.928;-75.152;2022-12-29T06:59:56;102574.50;;;22.33;29.17
56632;BME280;42503;39.928;-75.152;2022-12-29T07:09:57;102567.06;;;22.39;29.25
56632;BME280;42503;39.928;-75.152;2022-12-29T07:19:58;102551.84;;;22.30;28.97
56632;BME280;42503;39.928;-75.152;2022-12-29T07:30:00;102575.78;;;22.43;29.06
56632;BME280;42503;39.928;-75.152;2022-12-29T07:40:02;102582.81;;;22.45;29.30
56632;BME280;42503;39.928;-75.152;2022-12-29T07:50:07;102568.53;;;22.42;29.50
56632;BME280;42503;39.928;-75.152;2022-12-29T08:00:09;102577.56;;;22.49;29.32
56632;BME280;42503;39.928;-75.152;2022-12-29T08:10:14;102577.56;;;22.49;29.11
56632;BME280;42503;39.928;-75.152;2022-12-29T08:20:16;102567.16;;;22.44;29.34
56632;BME280;42503;39.928;-75.152;2022-12-29T08:30:17;102550.69;;;22.43;29.19
56632;BME280;42503;39.928;-75.152;2022-12-29T08:40:19;102542.91;;;22.45;29.01
56632;BME280;42503;39.928;-75.152;2022-12-29T08:50:20;102552.03;;;22.57;29.11
56632;BME280;42503;39.928;-75.152;2022-12-29T09:00:24;102544.28;;;22.59;28.75
56632;BME280;42503;39.928;-75.152;2022-12-29T09:10:26;102546.03;;;22.65;28.74
56632;BME280;42503;39.928;-75.152;2022-12-29T09:20:27;102555.34;;;22.71;28.71
56632;BME280;42503;39.928;-75.152;2022-12-29T09:30:29;102555.69;;;22.74;28.92
56632;BME280;42503;39.928;-75.152;2022-12-29T09:40:32;102551.22;;;22.73;28.75
56632;BME280;42503;39.928;-75.152;2022-12-29T09:50:35;102548.91;;;22.70;28.77
56632;BME280;42503;39.928;-75.152;2022-12-29T10:00:47;102569.72;;;22.79;28.68
56632;BME280;42503;39.928;-75.152;2022-12-29T10:11:17;102587.03;;;22.81;28.98
56632;BME280;42503;39.928;-75.152;2022-12-29T10:31:40;102587.03;;;22.81;29.16
56632;BME280;42503;39.928;-75.152;2022-12-29T10:41:45;102592.63;;;22.81;28.94
56632;BME280;42503;39.928;-75.152;2022-12-29T10:51:50;102592.81;;;22.75;28.86
56632;BME280;42503;39.928;-75.152;2022-12-29T11:22:24;102591.00;;;22.86;28.65
56632;BME280;42503;39.928;-75.152;2022-12-29T11:32:28;102600.59;;;22.90;28.32
56632;BME280;42503;39.928;-75.152;2022-12-29T11:42:40;102613.56;;;22.96;28.18
56632;BME280;42503;39.928;-75.152;2022-12-29T11:52:42;102611.34;;;22.98;28.06
56632;BME280;42503;39.928;-75.152;2022-12-29T12:03:02;102618.88;;;22.97;28.30
56632;BME280;42503;39.928;-75.152;2022-12-29T12:23:39;102595.53;;;22.87;28.17
56632;BME280;42503;39.928;-75.152;2022-12-29T12:33:47;102606.34;;;23.00;27.67
56632;BME280;42503;39.928;-75.152;2022-12-29T13:04:56;102612.13;;;22.93;27.84
56632;BME280;42503;39.928;-75.152;2022-12-29T13:35:42;102635.78;;;22.91;27.99
56632;BME280;42503;39.928;-75.152;2022-12-29T13:45:57;102636.41;;;22.93;27.96
56632;BME280;42503;39.928;-75.152;2022-12-29T14:37:21;102651.53;;;23.14;28.63
56632;BME280;42503;39.928;-75.152;2022-12-29T14:47:18;102626.34;;;22.92;28.45
56632;BME280;42503;39.928;-75.152;2022-12-29T15:07:29;102642.75;;;23.05;28.42
56632;BME280;42503;39.928;-75.152;2022-12-29T15:17:33;102659.81;;;23.25;28.53
56632;BME280;42503;39.928;-75.152;2022-12-29T15:27:35;102657.28;;;23.24;28.27
56632;BME280;42503;39.928;-75.152;2022-12-29T15:37:37;102656.75;;;23.27;28.23
56632;BME280;42503;39.928;-75.152;2022-12-29T15:47:39;102636.38;;;23.26;28.36
56632;BME280;42503;39.928;-75.152;2022-12-29T15:57:43;102628.81;;;23.27;28.23
56632;BME280;42503;39.928;-75.152;2022-12-29T16:07:56;102613.94;;;23.21;28.55
56632;BME280;42503;39.928;-75.152;2022-12-29T16:18:03;102589.41;;;23.23;28.29
56632;BME280;42503;39.928;-75.152;2022-12-29T16:28:20;102571.47;;;23.19;28.45
56632;BME280;42503;39.928;-75.152;2022-12-29T16:38:30;102523.75;;;23.04;28.27
56632;BME280;42503;39.928;-75.152;2022-12-29T16:48:35;102535.75;;;23.21;28.22
56632;BME280;42503;39.928;-75.152;2022-12-29T16:58:38;102515.63;;;23.19;28.17
56632;BME280;42503;39.928;-75.152;2022-12-29T17:08:41;102499.88;;;23.13;28.52
56632;BME280;42503;39.928;-75.152;2022-12-29T17:18:45;102496.66;;;23.21;28.37
56632;BME280;42503;39.928;-75.152;2022-12-29T17:28:46;102458.47;;;23.05;27.91
56632;BME280;42503;39.928;-75.152;2022-12-29T17:38:48;102459.78;;;23.19;28.19
56632;BME280;42503;39.928;-75.152;2022-12-29T17:48:49;102453.84;;;23.16;27.79
56632;BME280;42503;39.928;-75.152;2022-12-29T17:58:53;102437.38;;;23.14;27.93
56632;BME280;42503;39.928;-75.152;2022-12-29T18:08:55;102408.41;;;22.98;28.57
56632;BME280;42503;39.928;-75.152;2022-12-29T18:18:57;102422.88;;;23.17;28.24
56632;BME280;42503;39.928;-75.152;2022-12-29T18:29:01;102399.91;;;23.10;28.53
56632;BME280;42503;39.928;-75.152;2022-12-29T18:39:02;102417.94;;;23.24;28.58
56632;BME280;42503;39.928;-75.152;2022-12-29T18:49:04;102413.53;;;23.28;28.28
56632;BME280;42503;39.928;-75.152;2022-12-29T18:59:10;102398.44;;;23.29;28.38
56632;BME280;42503;39.928;-75.152;2022-12-29T19:09:12;102391.78;;;23.36;28.30
56632;BME280;42503;39.928;-75.152;2022-12-29T19:19:15;102357.00;;;23.21;28.91
56632;BME280;42503;39.928;-75.152;2022-12-29T19:29:16;102375.09;;;23.41;28.33
56632;BME280;42503;39.928;-75.152;2022-12-29T19:39:17;102375.09;;;23.41;28.28
56632;BME280;42503;39.928;-75.152;2022-12-29T19:49:19;102358.22;;;23.30;28.41
56632;BME280;42503;39.928;-75.152;2022-12-29T19:59:21;102390.22;;;23.45;28.50
56632;BME280;42503;39.928;-75.152;2022-12-29T20:09:22;102388.03;;;23.47;28.47
56632;BME280;42503;39.928;-75.152;2022-12-29T20:19:24;102396.97;;;23.49;28.23
56632;BME280;42503;39.928;-75.152;2022-12-29T20:29:25;102397.56;;;23.51;28.70
56632;BME280;42503;39.928;-75.152;2022-12-29T20:39:27;102387.47;;;23.50;28.53
56632;BME280;42503;39.928;-75.152;2022-12-29T20:49:28;102418.81;;;23.52;28.38
56632;BME280;42503;39.928;-75.152;2022-12-29T20:59:30;102411.00;;;23.54;28.52
56632;BME280;42503;39.928;-75.152;2022-12-29T21:09:31;102413.22;;;23.52;28.35
56632;BME280;42503;39.928;-75.152;2022-12-29T21:19:32;102419.66;;;23.52;28.54
56632;BME280;42503;39.928;-75.152;2022-12-29T21:29:34;102410.94;;;23.49;28.74
56632;BME280;42503;39.928;-75.152;2022-12-29T21:39:35;102418.16;;;23.45;28.54
56632;BME280;42503;39.928;-75.152;2022-12-29T21:49:37;102435.75;;;23.45;28.89
56632;BME280;42503;39.928;-75.152;2022-12-29T21:59:38;102438.81;;;23.44;29.56
56632;BME280;42503;39.928;-75.152;2022-12-29T22:09:58;102452.78;;;23.44;30.40
56632;BME280;42503;39.928;-75.152;2022-12-29T22:20:20;102455.59;;;23.44;30.94
56632;BME280;42503;39.928;-75.152;2022-12-29T22:30:21;102444.41;;;23.44;30.43
56632;BME280;42503;39.928;-75.152;2022-12-29T22:40:23;102462.28;;;23.43;30.54
56632;BME280;42503;39.928;-75.152;2022-12-29T22:50:24;102457.47;;;23.38;30.53
56632;BME280;42503;39.928;-75.152;2022-12-29T23:00:28;102467.28;;;23.41;30.34
56632;BME280;42503;39.928;-75.152;2022-12-29T23:10:30;102479.00;;;23.38;30.40
56632;BME280;42503;39.928;-75.152;2022-12-29T23:20:31;102453.00;;;23.15;30.56
56632;BME280;42503;39.928;-75.152;2022-12-29T23:30:35;102481.06;;;23.25;30.03
56632;BME280;42503;39.928;-75.152;2022-12-29T23:40:36;102486.66;;;23.25;29.91
56632;BME280;42503;39.928;-75.152;2022-12-29T23:50:39;102491.56;;;23.18;30.40
